sensor_id;sensor_type;location;lat;lon;timestamp;pressure;altitude;pressure_sealevel;temperature;humidity
8160;BME280;27404;52.398;9.646;2023-05-11T00:00:04;100717.56;;;12.57;100.00
8160;BME280;27404;52.398;9.646;2023-05-11T00:02:30;100712.22;;;12.51;100.00
8160;BME280;27404;52.398;9.646;2023-05-11T00:04:55;100714.38;;;12.49;100.00
8160;BME280;27404;52.398;9.646;2023-05-11T00:07:21;100718.47;;;12.46;100.00
8160;BME280;27404;52.398;9.646;2023-05-11T00:09:47;100717.97;;;12.49;100.00
8160;BME280;27404;52.398;9.646;2023-05-11T00:12:12;100705.25;;;12.43;100.00
8160;BME280;27404;52.398;9.646;2023-05-11T00:14:38;100710.13;;;12.41;100.00
8160;BME280;27404;52.398;9.646;2023-05-11T00:17:04;100714.19;;;12.38;100.00
8160;BME280;27404;52.398;9.646;2023-05-11T00:19:30;100712.28;;;12.39;100.00
8160;BME280;27404;52.398;9.646;2023-05-11T00:21:56;100720.25;;;12.40;100.00
8160;BME280;27404;52.398;9.646;2023-05-11T00:24:23;100713.94;;;12.40;100.00
8160;BME280;27404;52.398;9.646;2023-05-11T00:26:49;100713.94;;;12.40;100.00
8160;BME280;27404;52.398;9.646;2023-05-11T00:29:14;100711.44;;;12.38;100.00
8160;BME280;27404;52.398;9.646;2023-05-11T00:31:40;100714.44;;;12.37;100.00
8160;BME280;27404;52.398;9.646;2023-05-11T00:34:05;100713.00;;;12.34;100.00
8160;BME280;27404;52.398;9.646;2023-05-11T00:36:31;100717.19;;;12.37;100.00
8160;BME280;27404;52.398;9.646;2023-05-11T00:38:57;100716.00;;;12.33;100.00
8160;BME280;27404;52.398;9.646;2023-05-11T00:41:23;100711.13;;;12.35;100.00
8160;BME280;27404;52.398;9.646;2023-05-11T00:43:49;100714.09;;;12.33;100.00
8160;BME280;27404;52.398;9.646;2023-05-11T00:46:14;100711.59;;;12.32;100.00
8160;BME280;27404;52.398;9.646;2023-05-11T00:48:40;100716.50;;;12.29;100.00
8160;BME280;27404;52.398;9.646;2023-05-11T00:51:05;100718.50;;;12.34;100.00
8160;BME280;27404;52.398;9.646;2023-05-11T00:53:31;100712.19;;;12.34;100.00
8160;BME280;27404;52.398;9.646;2023-05-11T00:55:57;100716.34;;;12.36;100.00
8160;BME280;27404;52.398;9.646;2023-05-11T00:58:23;100717.69;;;12.34;100.00
8160;BME280;27404;52.398;9.646;2023-05-11T01:00:49;100722.91;;;12.35;100.00
8160;BME280;27404;52.398;9.646;2023-05-11T01:03:15;100724.47;;;12.31;100.00
8160;BME280;27404;52.398;9.646;2023-05-11T01:05:52;100732.94;;;12.29;100.00
8160;BME280;27404;52.398;9.646;2023-05-11T01:08:34;100723.53;;;12.25;100.00
8160;BME280;27404;52.398;9.646;2023-05-11T01:13:42;100720.47;;;12.22;100.00
8160;BME280;27404;52.398;9.646;2023-05-11T01:16:19;100725.84;;;12.17;100.00
8160;BME280;27404;52.398;9.646;2023-05-11T01:21:17;100714.34;;;12.03;100.00
8160;BME280;27404;52.398;9.646;2023-05-11T01:29:42;100717.19;;;11.96;100.00
8160;BME280;27404;52.398;9.646;2023-05-11T01:32:22;100727.81;;;11.92;100.00
8160;BME280;27404;52.398;9.646;2023-05-11T01:35:01;100722.81;;;11.89;100.00
8160;BME280;27404;52.398;9.646;2023-05-11T01:37:30;100721.53;;;11.80;100.00
8160;BME280;27404;52.398;9.646;2023-05-11T01:40:01;100722.50;;;11.74;100.00
8160;BME280;27404;52.398;9.646;2023-05-11T01:42:31;100732.22;;;11.81;100.00
8160;BME280;27404;52.398;9.646;2023-05-11T01:45:00;100721.66;;;11.73;100.00
8160;BME280;27404;52.398;9.646;2023-05-11T01:47:28;100722.25;;;11.75;100.00
8160;BME280;27404;52.398;9.646;2023-05-11T01:49:55;100723.19;;;11.69;100.00
8160;BME280;27404;52.398;9.646;2023-05-11T01:52:24;100716.53;;;11.65;100.00
8160;BME280;27404;52.398;9.646;2023-05-11T01:54:51;100730.63;;;11.57;100.00
8160;BME280;27404;52.398;9.646;2023-05-11T01:57:18;100725.97;;;11.57;100.00
8160;BME280;27404;52.398;9.646;2023-05-11T01:59:44;100725.84;;;11.52;100.00
8160;BME280;27404;52.398;9.646;2023-05-11T02:02:11;100727.19;;;11.49;100.00
8160;BME280;27404;52.398;9.646;2023-05-11T02:04:39;100728.38;;;11.53;100.00
8160;BME280;27404;52.398;9.646;2023-05-11T02:07:06;100724.91;;;11.58;100.00
8160;BME280;27404;52.398;9.646;2023-05-11T02:09:33;100722.03;;;11.53;100.00
8160;BME280;27404;52.398;9.646;2023-05-11T02:12:01;100723.38;;;11.50;100.00
8160;BME280;27404;52.398;9.646;2023-05-11T02:14:28;100719.78;;;11.50;100.00
8160;BME280;27404;52.398;9.646;2023-05-11T02:16:59;100730.25;;;11.53;100.00
8160;BME280;27404;52.398;9.646;2023-05-11T02:19:27;100732.28;;;11.58;100.00
8160;BME280;27404;52.398;9.646;2023-05-11T02:21:54;100726.41;;;11.66;100.00
8160;BME280;27404;52.398;9.646;2023-05-11T02:24:20;100725.00;;;11.63;100.00
8160;BME280;27404;52.398;9.646;2023-05-11T02:26:47;100730.97;;;11.60;100.00
8160;BME280;27404;52.398;9.646;2023-05-11T02:29:13;100725.00;;;11.63;100.00
8160;BME280;27404;52.398;9.646;2023-05-11T02:31:44;100731.56;;;11.62;100.00
8160;BME280;27404;52.398;9.646;2023-05-11T02:34:21;100736.69;;;11.59;100.00
8160;BME280;27404;52.398;9.646;2023-05-11T02:36:52;100724.31;;;11.56;100.00
8160;BME280;27404;52.398;9.646;2023-05-11T02:39:19;100735.59;;;11.60;100.00
8160;BME280;27404;52.398;9.646;2023-05-11T02:41:55;100728.22;;;11.60;100.00
8160;BME280;27404;52.398;9.646;2023-05-11T02:44:22;100727.97;;;11.62;100.00
8160;BME280;27404;52.398;9.646;2023-05-11T02:46:51;100732.84;;;11.60;100.00
8160;BME280;27404;52.398;9.646;2023-05-11T02:49:21;100730.97;;;11.60;100.00
8160;BME280;27404;52.398;9.646;2023-05-11T02:51:49;100734.53;;;11.61;100.00
8160;BME280;27404;52.398;9.646;2023-05-11T02:54:17;100733.69;;;11.60;100.00
8160;BME280;27404;52.398;9.646;2023-05-11T02:56:43;100731.31;;;11.64;100.00
8160;BME280;27404;52.398;9.646;2023-05-11T02:59:10;100733.44;;;11.62;100.00
8160;BME280;27404;52.398;9.646;2023-05-11T03:01:38;100732.16;;;11.64;100.00
8160;BME280;27404;52.398;9.646;2023-05-11T03:04:04;100733.81;;;11.65;100.00
8160;BME280;27404;52.398;9.646;2023-05-11T03:06:30;100742.63;;;11.67;100.00
8160;BME280;27404;52.398;9.646;2023-05-11T03:08:56;100735.22;;;11.68;100.00
8160;BME280;27404;52.398;9.646;2023-05-11T03:11:22;100734.28;;;11.62;100.00
8160;BME280;27404;52.398;9.646;2023-05-11T03:13:48;100736.19;;;11.62;100.00
8160;BME280;27404;52.398;9.646;2023-05-11T03:16:15;100740.59;;;11.63;100.00
8160;BME280;27404;52.398;9.646;2023-05-11T03:18:42;100731.31;;;11.64;100.00
8160;BME280;27404;52.398;9.646;2023-05-11T03:21:08;100736.78;;;11.64;100.00
8160;BME280;27404;52.398;9.646;2023-05-11T03:23:35;100738.22;;;11.66;100.00
8160;BME280;27404;52.398;9.646;2023-05-11T03:26:03;100737.16;;;11.67;100.00
8160;BME280;27404;52.398;9.646;2023-05-11T03:28:29;100736.91;;;11.69;100.00
8160;BME280;27404;52.398;9.646;2023-05-11T03:30:55;100733.94;;;11.70;100.00
8160;BME280;27404;52.398;9.646;2023-05-11T03:33:21;100732.00;;;11.71;100.00
8160;BME280;27404;52.398;9.646;2023-05-11T03:35:48;100739.75;;;11.74;100.00
8160;BME280;27404;52.398;9.646;2023-05-11T03:38:14;100730.44;;;11.75;100.00
8160;BME280;27404;52.398;9.646;2023-05-11T03:40:41;100736.31;;;11.79;100.00
8160;BME280;27404;52.398;9.646;2023-05-11T03:43:10;100730.81;;;11.79;100.00
8160;BME280;27404;52.398;9.646;2023-05-11T03:45:38;100737.38;;;11.78;100.00
8160;BME280;27404;52.398;9.646;2023-05-11T03:48:05;100734.97;;;11.81;100.00
8160;BME280;27404;52.398;9.646;2023-05-11T03:50:32;100729.59;;;11.87;100.00
8160;BME280;27404;52.398;9.646;2023-05-11T03:52:58;100730.69;;;11.85;100.00
8160;BME280;27404;52.398;9.646;2023-05-11T03:55:25;100726.28;;;11.84;100.00
8160;BME280;27404;52.398;9.646;2023-05-11T03:57:51;100723.41;;;11.79;100.00
8160;BME280;27404;52.398;9.646;2023-05-11T04:00:17;100727.59;;;11.82;100.00
8160;BME280;27404;52.398;9.646;2023-05-11T04:02:42;100723.78;;;11.83;100.00
8160;BME280;27404;52.398;9.646;2023-05-11T04:05:09;100727.59;;;11.82;100.00
8160;BME280;27404;52.398;9.646;2023-05-11T04:07:36;100725.69;;;11.82;100.00
8160;BME280;27404;52.398;9.646;2023-05-11T04:10:03;100726.53;;;11.83;100.00
8160;BME280;27404;52.398;9.646;2023-05-11T04:12:29;100732.00;;;11.83;100.00
8160;BME280;27404;52.398;9.646;2023-05-11T04:14:54;100725.19;;;11.85;100.00
8160;BME280;27404;52.398;9.646;2023-05-11T04:17:20;100729.13;;;11.90;100.00
8160;BME280;27404;52.398;9.646;2023-05-11T04:19:45;100730.56;;;11.92;100.00
8160;BME280;27404;52.398;9.646;2023-05-11T04:22:11;100731.75;;;11.84;100.00
8160;BME280;27404;52.398;9.646;2023-05-11T04:24:37;100730.19;;;11.89;100.00
8160;BME280;27404;52.398;9.646;2023-05-11T04:27:02;100723.75;;;11.95;100.00
8160;BME280;27404;52.398;9.646;2023-05-11T04:29:28;100732.19;;;11.93;100.00
8160;BME280;27404;52.398;9.646;2023-05-11T04:31:53;100732.19;;;11.93;100.00
8160;BME280;27404;52.398;9.646;2023-05-11T04:34:19;100739.69;;;11.98;100.00
8160;BME280;27404;52.398;9.646;2023-05-11T04:36:47;100730.41;;;11.99;100.00
8160;BME280;27404;52.398;9.646;2023-05-11T04:39:12;100738.84;;;11.97;100.00
8160;BME280;27404;52.398;9.646;2023-05-11T04:41:38;100738.78;;;11.92;100.00
8160;BME280;27404;52.398;9.646;2023-05-11T04:44:03;100737.94;;;11.92;100.00
8160;BME280;27404;52.398;9.646;2023-05-11T04:46:29;100735.66;;;11.89;100.00
8160;BME280;27404;52.398;9.646;2023-05-11T04:48:54;100737.94;;;11.92;100.00
8160;BME280;27404;52.398;9.646;2023-05-11T04:51:20;100739.34;;;11.94;100.00
8160;BME280;27404;52.398;9.646;2023-05-11T04:53:45;100741.38;;;11.99;100.00
8160;BME280;27404;52.398;9.646;2023-05-11T04:56:10;100734.47;;;12.08;100.00
8160;BME280;27404;52.398;9.646;2023-05-11T04:58:36;100743.28;;;12.10;100.00
8160;BME280;27404;52.398;9.646;2023-05-11T05:01:02;100736.81;;;12.17;100.00
8160;BME280;27404;52.398;9.646;2023-05-11T05:03:28;100744.69;;;12.13;100.00
8160;BME280;27404;52.398;9.646;2023-05-11T05:05:54;100736.34;;;12.20;100.00
8160;BME280;27404;52.398;9.646;2023-05-11T05:08:19;100738.44;;;12.29;100.00
8160;BME280;27404;52.398;9.646;2023-05-11T05:10:46;100748.53;;;12.29;100.00
8160;BME280;27404;52.398;9.646;2023-05-11T05:13:11;100739.84;;;12.32;100.00
8160;BME280;27404;52.398;9.646;2023-05-11T05:15:37;100749.13;;;12.31;100.00
8160;BME280;27404;52.398;9.646;2023-05-11T05:18:02;100746.66;;;12.29;100.00
8160;BME280;27404;52.398;9.646;2023-05-11T05:20:28;100742.56;;;12.32;100.00
8160;BME280;27404;52.398;9.646;2023-05-11T05:22:53;100745.03;;;12.46;100.00
8160;BME280;27404;52.398;9.646;2023-05-11T05:25:19;100754.78;;;12.53;100.00
8160;BME280;27404;52.398;9.646;2023-05-11T05:27:45;100763.25;;;12.69;100.00
8160;BME280;27404;52.398;9.646;2023-05-11T05:30:11;100754.41;;;12.79;100.00
8160;BME280;27404;52.398;9.646;2023-05-11T05:32:36;100749.91;;;12.89;100.00
8160;BME280;27404;52.398;9.646;2023-05-11T05:35:02;100747.09;;;13.01;100.00
8160;BME280;27404;52.398;9.646;2023-05-11T05:37:28;100747.00;;;12.96;100.00
8160;BME280;27404;52.398;9.646;2023-05-11T05:39:53;100748.75;;;13.02;100.00
8160;BME280;27404;52.398;9.646;2023-05-11T05:42:19;100753.22;;;13.26;100.00
8160;BME280;27404;52.398;9.646;2023-05-11T05:44:46;100756.72;;;13.38;100.00
8160;BME280;27404;52.398;9.646;2023-05-11T05:47:12;100759.41;;;13.50;100.00
8160;BME280;27404;52.398;9.646;2023-05-11T05:49:37;100748.50;;;13.55;100.00
8160;BME280;27404;52.398;9.646;2023-05-11T05:52:03;100758.78;;;13.65;100.00
8160;BME280;27404;52.398;9.646;2023-05-11T05:54:28;100764.09;;;13.72;100.00
8160;BME280;27404;52.398;9.646;2023-05-11T05:56:54;100759.94;;;13.69;100.00
8160;BME280;27404;52.398;9.646;2023-05-11T05:59:19;100759.94;;;13.69;100.00
8160;BME280;27404;52.398;9.646;2023-05-11T06:01:48;100763.78;;;13.68;100.00
8160;BME280;27404;52.398;9.646;2023-05-11T06:04:13;100761.91;;;13.74;100.00
8160;BME280;27404;52.398;9.646;2023-05-11T06:06:39;100771.75;;;13.70;100.00
8160;BME280;27404;52.398;9.646;2023-05-11T06:09:05;100761.47;;;13.60;100.00
8160;BME280;27404;52.398;9.646;2023-05-11T06:11:30;100767.97;;;13.54;100.00
8160;BME280;27404;52.398;9.646;2023-05-11T06:13:56;100771.28;;;13.56;100.00
8160;BME280;27404;52.398;9.646;2023-05-11T06:16:22;100768.34;;;13.62;100.00
8160;BME280;27404;52.398;9.646;2023-05-11T06:18:49;100774.56;;;13.75;100.00
8160;BME280;27404;52.398;9.646;2023-05-11T06:21:15;100771.97;;;13.85;100.00
8160;BME280;27404;52.398;9.646;2023-05-11T06:23:40;100775.06;;;13.89;100.00
8160;BME280;27404;52.398;9.646;2023-05-11T06:26:05;100771.84;;;13.97;100.00
8160;BME280;27404;52.398;9.646;2023-05-11T06:28:31;100764.69;;;13.96;100.00
8160;BME280;27404;52.398;9.646;2023-05-11T06:30:56;100765.59;;;14.02;100.00
8160;BME280;27404;52.398;9.646;2023-05-11T06:33:25;100775.16;;;13.99;100.00
8160;BME280;27404;52.398;9.646;2023-05-11T06:35:50;100769.41;;;14.01;100.00
8160;BME280;27404;52.398;9.646;2023-05-11T06:38:16;100768.91;;;14.04;100.00
8160;BME280;27404;52.398;9.646;2023-05-11T06:40:42;100769.41;;;14.01;100.00
8160;BME280;27404;52.398;9.646;2023-05-11T06:43:08;100768.78;;;14.16;100.00
8160;BME280;27404;52.398;9.646;2023-05-11T06:45:34;100771.88;;;14.25;100.00
8160;BME280;27404;52.398;9.646;2023-05-11T06:47:59;100768.53;;;14.17;100.00
8160;BME280;27404;52.398;9.646;2023-05-11T06:50:25;100766.38;;;14.25;100.00
8160;BME280;27404;52.398;9.646;2023-05-11T06:52:50;100764.53;;;14.30;100.00
8160;BME280;27404;52.398;9.646;2023-05-11T06:55:15;100773.03;;;14.29;100.00
8160;BME280;27404;52.398;9.646;2023-05-11T06:57:41;100764.47;;;14.25;100.00
8160;BME280;27404;52.398;9.646;2023-05-11T07:00:07;100761.94;;;13.96;100.00
8160;BME280;27404;52.398;9.646;2023-05-11T07:02:33;100770.06;;;14.08;100.00
8160;BME280;27404;52.398;9.646;2023-05-11T07:04:58;100769.69;;;14.21;100.00
8160;BME280;27404;52.398;9.646;2023-05-11T07:07:23;100770.03;;;14.30;100.00
8160;BME280;27404;52.398;9.646;2023-05-11T07:09:49;100778.66;;;14.39;100.00
8160;BME280;27404;52.398;9.646;2023-05-11T07:12:14;100778.31;;;14.58;100.00
8160;BME280;27404;52.398;9.646;2023-05-11T07:14:40;100775.91;;;14.66;100.00
8160;BME280;27404;52.398;9.646;2023-05-11T07:17:06;100776.31;;;14.75;100.00
8160;BME280;27404;52.398;9.646;2023-05-11T07:19:31;100779.91;;;14.76;100.00
8160;BME280;27404;52.398;9.646;2023-05-11T07:21:57;100770.00;;;14.52;100.00
8160;BME280;27404;52.398;9.646;2023-05-11T07:24:22;100772.28;;;14.61;100.00
8160;BME280;27404;52.398;9.646;2023-05-11T07:26:48;100772.81;;;14.58;100.00
8160;BME280;27404;52.398;9.646;2023-05-11T07:29:14;100777.63;;;14.45;100.00
8160;BME280;27404;52.398;9.646;2023-05-11T07:31:40;100775.91;;;14.39;100.00
8160;BME280;27404;52.398;9.646;2023-05-11T07:34:07;100778.09;;;14.37;100.00
8160;BME280;27404;52.398;9.646;2023-05-11T07:36:32;100775.84;;;14.34;100.00
8160;BME280;27404;52.398;9.646;2023-05-11T07:38:58;100771.66;;;14.54;100.00
8160;BME280;27404;52.398;9.646;2023-05-11T07:41:26;100775.34;;;14.64;100.00
8160;BME280;27404;52.398;9.646;2023-05-11T07:43:54;100771.69;;;14.81;100.00
8160;BME280;27404;52.398;9.646;2023-05-11T07:46:20;100778.38;;;14.90;100.00
8160;BME280;27404;52.398;9.646;2023-05-11T07:48:45;100774.31;;;14.98;100.00
8160;BME280;27404;52.398;9.646;2023-05-11T07:51:11;100772.41;;;14.99;100.00
8160;BME280;27404;52.398;9.646;2023-05-11T07:53:36;100771.97;;;15.12;100.00
8160;BME280;27404;52.398;9.646;2023-05-11T07:56:02;100772.59;;;15.24;100.00
8160;BME280;27404;52.398;9.646;2023-05-11T07:58:28;100772.91;;;15.28;100.00
8160;BME280;27404;52.398;9.646;2023-05-11T08:00:55;100783.06;;;15.28;100.00
8160;BME280;27404;52.398;9.646;2023-05-11T08:03:21;100780.53;;;15.16;100.00
8160;BME280;27404;52.398;9.646;2023-05-11T08:05:46;100782.75;;;15.19;100.00
8160;BME280;27404;52.398;9.646;2023-05-11T08:08:12;100780.16;;;14.74;100.00
8160;BME280;27404;52.398;9.646;2023-05-11T08:10:37;100778.25;;;15.07;100.00
8160;BME280;27404;52.398;9.646;2023-05-11T08:13:03;100776.09;;;15.15;100.00
8160;BME280;27404;52.398;9.646;2023-05-11T08:15:29;100784.69;;;14.91;100.00
8160;BME280;27404;52.398;9.646;2023-05-11T08:17:54;100780.28;;;14.85;100.00
8160;BME280;27404;52.398;9.646;2023-05-11T08:20:20;100776.31;;;14.75;100.00
8160;BME280;27404;52.398;9.646;2023-05-11T08:22:46;100786.84;;;14.56;100.00
8160;BME280;27404;52.398;9.646;2023-05-11T08:25:11;100786.56;;;14.58;100.00
8160;BME280;27404;52.398;9.646;2023-05-11T08:27:37;100791.28;;;14.62;100.00
8160;BME280;27404;52.398;9.646;2023-05-11T08:30:03;100789.94;;;14.65;100.00
8160;BME280;27404;52.398;9.646;2023-05-11T08:32:29;100799.13;;;14.48;100.00
8160;BME280;27404;52.398;9.646;2023-05-11T08:34:54;100795.44;;;14.38;100.00
8160;BME280;27404;52.398;9.646;2023-05-11T08:37:21;100798.34;;;14.53;100.00
8160;BME280;27404;52.398;9.646;2023-05-11T08:39:46;100794.44;;;14.71;100.00
8160;BME280;27404;52.398;9.646;2023-05-11T08:42:14;100792.31;;;14.78;100.00
8160;BME280;27404;52.398;9.646;2023-05-11T08:44:42;100792.00;;;14.75;100.00
8160;BME280;27404;52.398;9.646;2023-05-11T08:47:09;100795.00;;;14.73;100.00
8160;BME280;27404;52.398;9.646;2023-05-11T08:49:35;100800.03;;;14.54;100.00
8160;BME280;27404;52.398;9.646;2023-05-11T08:52:03;100793.66;;;14.54;100.00
8160;BME280;27404;52.398;9.646;2023-05-11T08:54:30;100797.28;;;14.59;100.00
8160;BME280;27404;52.398;9.646;2023-05-11T08:56:56;100802.34;;;14.68;100.00
8160;BME280;27404;52.398;9.646;2023-05-11T08:59:26;100808.28;;;14.54;100.00
8160;BME280;27404;52.398;9.646;2023-05-11T09:01:52;100801.34;;;14.51;100.00
8160;BME280;27404;52.398;9.646;2023-05-11T09:04:19;100803.63;;;14.32;100.00
8160;BME280;27404;52.398;9.646;2023-05-11T09:06:46;100799.13;;;14.48;100.00
8160;BME280;27404;52.398;9.646;2023-05-11T09:09:13;100800.78;;;14.49;100.00
8160;BME280;27404;52.398;9.646;2023-05-11T09:11:38;100799.59;;;14.68;100.00
8160;BME280;27404;52.398;9.646;2023-05-11T09:14:04;100799.44;;;14.74;100.00
8160;BME280;27404;52.398;9.646;2023-05-11T09:16:30;100797.03;;;14.83;100.00
8160;BME280;27404;52.398;9.646;2023-05-11T09:18:59;100797.22;;;15.04;100.00
8160;BME280;27404;52.398;9.646;2023-05-11T09:21:26;100794.81;;;15.13;100.00
8160;BME280;27404;52.398;9.646;2023-05-11T09:23:55;100795.81;;;15.01;100.00
8160;BME280;27404;52.398;9.646;2023-05-11T09:26:21;100796.91;;;15.00;100.00
8160;BME280;27404;52.398;9.646;2023-05-11T09:28:57;100796.22;;;14.83;100.00
8160;BME280;27404;52.398;9.646;2023-05-11T09:31:39;100794.91;;;14.90;100.00
8160;BME280;27404;52.398;9.646;2023-05-11T09:36:38;100794.66;;;14.97;100.00
8160;BME280;27404;52.398;9.646;2023-05-11T09:39:03;100789.66;;;14.66;100.00
8160;BME280;27404;52.398;9.646;2023-05-11T09:41:30;100798.59;;;14.51;100.00
8160;BME280;27404;52.398;9.646;2023-05-11T09:44:14;100794.06;;;14.90;100.00
8160;BME280;27404;52.398;9.646;2023-05-11T09:46:44;100792.66;;;14.87;100.00
8160;BME280;27404;52.398;9.646;2023-05-11T09:49:10;100787.63;;;14.07;100.00
8160;BME280;27404;52.398;9.646;2023-05-11T09:51:38;100800.59;;;14.12;100.00
8160;BME280;27404;52.398;9.646;2023-05-11T09:54:20;100804.25;;;14.40;100.00
8160;BME280;27404;52.398;9.646;2023-05-11T09:56:52;100800.19;;;14.70;100.00
8160;BME280;27404;52.398;9.646;2023-05-11T09:59:36;100801.31;;;15.01;100.00
8160;BME280;27404;52.398;9.646;2023-05-11T10:02:25;100793.63;;;15.03;100.00
8160;BME280;27404;52.398;9.646;2023-05-11T10:04:53;100794.91;;;14.90;100.00
8160;BME280;27404;52.398;9.646;2023-05-11T10:07:32;100789.13;;;14.92;100.00
8160;BME280;27404;52.398;9.646;2023-05-11T10:10:00;100788.16;;;15.08;100.00
8160;BME280;27404;52.398;9.646;2023-05-11T10:12:27;100788.59;;;15.28;100.00
8160;BME280;27404;52.398;9.646;2023-05-11T10:15:06;100789.66;;;15.64;100.00
8160;BME280;27404;52.398;9.646;2023-05-11T10:17:31;100785.63;;;15.77;100.00
8160;BME280;27404;52.398;9.646;2023-05-11T10:19:58;100780.44;;;15.86;100.00
8160;BME280;27404;52.398;9.646;2023-05-11T10:22:25;100783.97;;;15.76;100.00
8160;BME280;27404;52.398;9.646;2023-05-11T10:24:52;100782.59;;;15.79;100.00
8160;BME280;27404;52.398;9.646;2023-05-11T10:27:18;100775.13;;;15.74;100.00
8160;BME280;27404;52.398;9.646;2023-05-11T10:29:45;100780.03;;;15.62;100.00
8160;BME280;27404;52.398;9.646;2023-05-11T10:32:12;100774.78;;;15.65;100.00
8160;BME280;27404;52.398;9.646;2023-05-11T10:34:37;100777.09;;;15.84;100.00
8160;BME280;27404;52.398;9.646;2023-05-11T10:37:04;100768.09;;;15.89;100.00
8160;BME280;27404;52.398;9.646;2023-05-11T10:39:31;100770.91;;;15.61;100.00
8160;BME280;27404;52.398;9.646;2023-05-11T10:47:36;100776.72;;;14.89;100.00
8160;BME280;27404;52.398;9.646;2023-05-11T10:53:24;100780.00;;;14.86;100.00
8160;BME280;27404;52.398;9.646;2023-05-11T11:01:40;100781.78;;;14.70;100.00
8160;BME280;27404;52.398;9.646;2023-05-11T11:04:13;100784.38;;;14.60;100.00
8160;BME280;27404;52.398;9.646;2023-05-11T11:06:42;100779.84;;;14.21;100.00
8160;BME280;27404;52.398;9.646;2023-05-11T11:09:10;100785.19;;;14.11;100.00
8160;BME280;27404;52.398;9.646;2023-05-11T11:11:47;100785.03;;;14.17;100.00
8160;BME280;27404;52.398;9.646;2023-05-11T11:14:16;100780.91;;;14.20;100.00
8160;BME280;27404;52.398;9.646;2023-05-11T11:19:38;100794.47;;;14.49;100.00
8160;BME280;27404;52.398;9.646;2023-05-11T11:22:04;100778.75;;;14.22;100.00
8160;BME280;27404;52.398;9.646;2023-05-11T11:27:01;100782.31;;;14.00;100.00
8160;BME280;27404;52.398;9.646;2023-05-11T11:29:28;100789.31;;;14.08;100.00
8160;BME280;27404;52.398;9.646;2023-05-11T11:31:54;100789.88;;;13.88;100.00
8160;BME280;27404;52.398;9.646;2023-05-11T11:34:40;100784.88;;;13.85;100.00
8160;BME280;27404;52.398;9.646;2023-05-11T11:37:06;100786.94;;;13.95;100.00
8160;BME280;27404;52.398;9.646;2023-05-11T11:42:08;100789.69;;;13.95;100.00
8160;BME280;27404;52.398;9.646;2023-05-11T11:44:35;100797.25;;;13.65;100.00
8160;BME280;27404;52.398;9.646;2023-05-11T11:47:20;100800.00;;;13.65;100.00
8160;BME280;27404;52.398;9.646;2023-05-11T11:49:52;100800.72;;;13.77;100.00
8160;BME280;27404;52.398;9.646;2023-05-11T11:54:54;100807.06;;;13.61;100.00
8160;BME280;27404;52.398;9.646;2023-05-11T12:00:02;100806.56;;;13.30;100.00
8160;BME280;27404;52.398;9.646;2023-05-11T12:02:32;100804.38;;;13.15;100.00
8160;BME280;27404;52.398;9.646;2023-05-11T12:05:10;100801.00;;;13.25;100.00
8160;BME280;27404;52.398;9.646;2023-05-11T12:07:40;100802.63;;;13.26;100.00
8160;BME280;27404;52.398;9.646;2023-05-11T12:10:06;100813.56;;;13.21;100.00
8160;BME280;27404;52.398;9.646;2023-05-11T12:12:32;100808.38;;;13.07;100.00
8160;BME280;27404;52.398;9.646;2023-05-11T12:14:57;100810.47;;;13.17;100.00
8160;BME280;27404;52.398;9.646;2023-05-11T12:17:27;100806.13;;;13.04;100.00
8160;BME280;27404;52.398;9.646;2023-05-11T12:19:54;100804.72;;;13.01;100.00
8160;BME280;27404;52.398;9.646;2023-05-11T12:22:36;100812.94;;;13.01;100.00
8160;BME280;27404;52.398;9.646;2023-05-11T12:25:04;100807.44;;;13.01;100.00
8160;BME280;27404;52.398;9.646;2023-05-11T12:27:30;100806.13;;;13.04;100.00
8160;BME280;27404;52.398;9.646;2023-05-11T12:29:56;100804.03;;;12.94;100.00
8160;BME280;27404;52.398;9.646;2023-05-11T12:32:27;100804.97;;;13.00;100.00
8160;BME280;27404;52.398;9.646;2023-05-11T12:35:00;100806.38;;;13.02;100.00
8160;BME280;27404;52.398;9.646;2023-05-11T12:37:28;100797.00;;;13.15;100.00
8160;BME280;27404;52.398;9.646;2023-05-11T12:39:54;100806.91;;;13.33;100.00
8160;BME280;27404;52.398;9.646;2023-05-11T12:42:20;100805.00;;;13.51;100.00
8160;BME280;27404;52.398;9.646;2023-05-11T12:44:46;100799.56;;;13.73;100.00
8160;BME280;27404;52.398;9.646;2023-05-11T12:47:12;100799.38;;;13.80;100.00
8160;BME280;27404;52.398;9.646;2023-05-11T12:49:40;100793.66;;;14.04;100.00
8160;BME280;27404;52.398;9.646;2023-05-11T12:52:07;100792.44;;;14.17;100.00
8160;BME280;27404;52.398;9.646;2023-05-11T12:54:35;100783.59;;;14.15;100.00
8160;BME280;27404;52.398;9.646;2023-05-11T12:57:06;100786.84;;;14.34;100.00
8160;BME280;27404;52.398;9.646;2023-05-11T13:02:24;100774.19;;;14.33;100.00
8160;BME280;27404;52.398;9.646;2023-05-11T13:04:49;100772.91;;;14.41;100.00
8160;BME280;27404;52.398;9.646;2023-05-11T13:07:24;100776.28;;;14.26;100.00
8160;BME280;27404;52.398;9.646;2023-05-11T13:09:57;100769.59;;;14.39;100.00
8160;BME280;27404;52.398;9.646;2023-05-11T13:12:22;100774.81;;;14.40;100.00
8160;BME280;27404;52.398;9.646;2023-05-11T13:15:02;100762.56;;;14.75;100.00
8160;BME280;27404;52.398;9.646;2023-05-11T13:17:29;100758.97;;;15.07;100.00
8160;BME280;27404;52.398;9.646;2023-05-11T13:19:55;100760.31;;;15.37;100.00
8160;BME280;27404;52.398;9.646;2023-05-11T13:22:21;100763.44;;;15.57;100.00
8160;BME280;27404;52.398;9.646;2023-05-11T13:24:47;100753.50;;;15.50;100.00
8160;BME280;27404;52.398;9.646;2023-05-11T13:27:12;100747.50;;;15.59;100.00
8160;BME280;27404;52.398;9.646;2023-05-11T13:29:38;100748.47;;;15.42;100.00
8160;BME280;27404;52.398;9.646;2023-05-11T13:32:03;100750.50;;;15.57;100.00
8160;BME280;27404;52.398;9.646;2023-05-11T13:34:29;100741.03;;;15.37;100.00